Terminal Aerodrome Forecast
Issued by NWS

Home | Current Version | Previous Version | Text Only | Print | Product List | Glossary On
Versions: 1 2 3 4 5 6 7 8 9 10 11 12 13 14
000
FTUS46 KSEW 240520
TAFHQM
TAF
KHQM 240520Z 2406/2506 06011KT 5SM -RA BR FEW016 OVC030
     FM241000 15012KT P6SM -SHRA BKN035 OVC050
     FM241500 20014G22KT P6SM -SHRA BKN030 OVC045
     FM250300 20012KT P6SM VCSH SCT025 BKN050=

USA.gov is the U.S. government's official web portal to all federal, state and local government web resources and services.